Time;durP1;ratioP1;P1;durP2;ratioP2;P2;SDS_P1;SDS_P2;PMS_P1;PMS_P2;Temp;Humidity;BMP_temperature;BMP_pressure;BME280_temperature;BME280_humidity;BME280_pressure;Samples;Min_cycle;Max_cycle;Signal;HPM_P1;HPM_P2
2023/04/25 00:02:28;;;;;;;15.90;7.77;;;8.00;99.90;;;;;;5014845;28;21022;-73
2023/04/25 00:04:58;;;;;;;14.20;7.80;;;8.00;99.90;;;;;;5016612;28;20432;-73
2023/04/25 00:07:27;;;;;;;16.00;7.73;;;8.00;99.90;;;;;;5015056;28;20502;-72
2023/04/25 00:09:55;;;;;;;19.60;8.70;;;8.00;99.90;;;;;;5016480;28;20429;-72
2023/04/25 00:12:23;;;;;;;20.63;8.80;;;8.00;99.90;;;;;;5016008;28;20440;-72
2023/04/25 00:14:52;;;;;;;17.37;8.73;;;8.00;99.90;;;;;;5020591;28;20470;-73
2023/04/25 00:17:21;;;;;;;22.57;8.60;;;8.00;99.90;;;;;;5022872;28;20439;-72
2023/04/25 00:19:49;;;;;;;21.00;9.07;;;7.90;99.90;;;;;;5016998;28;20828;-72
2023/04/25 00:22:19;;;;;;;18.43;7.80;;;8.00;99.90;;;;;;5019055;28;20440;-72
2023/04/25 00:24:47;;;;;;;21.60;7.80;;;7.90;99.90;;;;;;5017834;28;20448;-72
2023/04/25 00:27:16;;;;;;;17.30;8.07;;;7.90;99.90;;;;;;5017330;28;20436;-72
2023/04/25 00:29:44;;;;;;;15.43;7.47;;;7.90;99.90;;;;;;5017058;28;20443;-71
2023/04/25 00:32:12;;;;;;;13.67;6.13;;;7.90;99.90;;;;;;5015114;28;20452;-72
2023/04/25 00:34:40;;;;;;;17.67;7.77;;;7.80;99.90;;;;;;5015106;28;20458;-72
2023/04/25 00:37:08;;;;;;;17.80;8.27;;;7.80;99.90;;;;;;5015219;28;20534;-72
2023/04/25 00:39:37;;;;;;;20.93;8.10;;;7.80;99.90;;;;;;5014359;28;20479;-72
2023/04/25 00:42:06;;;;;;;18.97;7.60;;;7.80;99.90;;;;;;5016598;28;20448;-72
2023/04/25 00:44:36;;;;;;;17.00;7.47;;;7.80;99.90;;;;;;5015629;28;20581;-72
2023/04/25 00:47:05;;;;;;;18.57;7.70;;;7.80;99.90;;;;;;5015821;28;20419;-72
2023/04/25 00:49:33;;;;;;;19.00;8.00;;;7.70;99.90;;;;;;5013936;28;20459;-72
2023/04/25 00:52:01;;;;;;;27.87;9.27;;;7.70;99.90;;;;;;5015398;28;20439;-72
2023/04/25 00:54:30;;;;;;;20.60;7.83;;;7.70;99.90;;;;;;5015441;28;20466;-72
2023/04/25 00:57:00;;;;;;;21.43;8.73;;;7.70;99.90;;;;;;5016009;28;20438;-72
2023/04/25 00:59:29;;;;;;;17.73;7.83;;;7.60;99.90;;;;;;5013827;28;20597;-72
2023/04/25 01:01:58;;;;;;;21.90;8.90;;;7.60;99.90;;;;;;5013965;28;20454;-72
2023/04/25 01:04:28;;;;;;;15.97;7.33;;;7.60;99.90;;;;;;5013725;28;20472;-72
2023/04/25 01:06:57;;;;;;;23.10;8.03;;;7.60;99.90;;;;;;5013860;28;20444;-72
2023/04/25 01:09:26;;;;;;;18.30;7.47;;;7.50;99.90;;;;;;5013741;28;20444;-72
2023/04/25 01:11:55;;;;;;;21.03;8.50;;;7.50;99.90;;;;;;5013736;28;20445;-72
2023/04/25 01:14:24;;;;;;;21.13;7.80;;;7.50;99.90;;;;;;5013612;28;21125;-72
2023/04/25 01:16:54;;;;;;;21.30;7.60;;;7.50;99.90;;;;;;5013805;28;20439;-72
2023/04/25 01:19:22;;;;;;;22.80;8.60;;;7.50;99.90;;;;;;5014716;28;20446;-72
2023/04/25 01:21:52;;;;;;;20.07;7.33;;;7.40;99.90;;;;;;5013518;28;20474;-72
2023/04/25 01:24:20;;;;;;;28.27;9.10;;;7.40;99.90;;;;;;5013029;28;20518;-72
2023/04/25 01:26:50;;;;;;;21.57;9.90;;;7.40;99.90;;;;;;5013533;28;20443;-72
2023/04/25 01:29:24;;;;;;;19.57;8.50;;;7.40;99.90;;;;;;5013412;28;20451;-72
2023/04/25 01:31:53;;;;;;;27.80;9.33;;;7.30;99.90;;;;;;5014648;28;20428;-72
2023/04/25 01:34:22;;;;;;;18.90;8.03;;;7.30;99.90;;;;;;5014423;28;20473;-73
2023/04/25 01:36:52;;;;;;;18.87;7.97;;;7.30;99.90;;;;;;5013477;28;20451;-72
2023/04/25 01:39:21;;;;;;;25.27;8.83;;;7.30;99.90;;;;;;5013229;28;20545;-72
2023/04/25 01:41:49;;;;;;;22.80;7.43;;;7.30;99.90;;;;;;5013196;28;20440;-72
2023/04/25 01:44:17;;;;;;;22.97;8.63;;;7.30;99.90;;;;;;5014206;28;20459;-72
2023/04/25 01:46:46;;;;;;;17.50;7.30;;;7.30;99.90;;;;;;5013241;28;20504;-72
2023/04/25 01:49:14;;;;;;;20.03;7.77;;;7.30;99.90;;;;;;5013088;28;20509;-72
2023/04/25 01:51:44;;;;;;;21.33;8.70;;;7.30;99.90;;;;;;5012965;28;20442;-72
2023/04/25 01:54:14;;;;;;;21.43;7.93;;;7.30;99.90;;;;;;5012960;28;20986;-72
2023/04/25 01:56:42;;;;;;;24.60;8.87;;;7.30;99.90;;;;;;5012953;28;20976;-72
2023/04/25 01:59:12;;;;;;;25.50;9.40;;;7.30;99.90;;;;;;5012870;28;20461;-72
2023/04/25 02:01:56;;;;;;;30.03;8.50;;;7.20;99.90;;;;;;5012889;28;20439;-72
2023/04/25 02:04:29;;;;;;;20.27;7.83;;;7.20;99.90;;;;;;5012744;28;20477;-71
2023/04/25 02:06:58;;;;;;;18.30;8.00;;;7.20;99.90;;;;;;5012948;28;20511;-72
2023/04/25 02:09:35;;;;;;;18.57;9.13;;;7.20;99.90;;;;;;5013071;28;20446;-72
2023/04/25 02:12:06;;;;;;;18.10;7.17;;;7.20;99.90;;;;;;5012689;28;20506;-72
2023/04/25 02:14:44;;;;;;;18.50;7.33;;;7.20;99.90;;;;;;5012648;28;20973;-72
2023/04/25 02:17:27;;;;;;;22.70;8.03;;;7.10;99.90;;;;;;5014251;28;20502;-72
2023/04/25 02:19:55;;;;;;;19.90;7.90;;;7.10;99.90;;;;;;5012797;28;20444;-72
2023/04/25 02:22:24;;;;;;;17.83;7.33;;;7.10;99.90;;;;;;5013744;28;20571;-72
2023/04/25 02:24:54;;;;;;;25.17;8.33;;;7.10;99.90;;;;;;5012503;28;20447;-72
2023/04/25 02:27:23;;;;;;;15.00;7.77;;;7.10;99.90;;;;;;5012663;28;20813;-74
2023/04/25 02:29:51;;;;;;;18.37;7.63;;;7.10;99.90;;;;;;5012436;28;20529;-72
2023/04/25 02:32:19;;;;;;;22.93;7.90;;;7.10;99.90;;;;;;5012379;28;20502;-72
2023/04/25 02:34:48;;;;;;;15.80;7.03;;;7.00;99.90;;;;;;5012611;28;21010;-72
2023/04/25 02:37:16;;;;;;;19.53;7.23;;;7.00;99.90;;;;;;5013169;28;20447;-72
2023/04/25 02:39:46;;;;;;;18.93;7.10;;;7.00;99.90;;;;;;5012481;28;20448;-72
2023/04/25 02:42:15;;;;;;;19.13;7.10;;;7.00;99.90;;;;;;5012174;28;20537;-72
2023/04/25 02:44:43;;;;;;;18.70;7.10;;;6.90;99.90;;;;;;5012439;28;20451;-72
2023/04/25 02:47:11;;;;;;;17.97;6.90;;;6.90;99.90;;;;;;5012411;28;20494;-72
2023/04/25 02:49:40;;;;;;;18.80;7.07;;;6.90;99.90;;;;;;5013611;28;20445;-72
2023/04/25 02:52:08;;;;;;;18.97;7.57;;;6.90;99.90;;;;;;5012315;28;20974;-72
2023/04/25 02:54:36;;;;;;;20.93;7.40;;;6.90;99.90;;;;;;5013110;28;20514;-72
2023/04/25 02:57:05;;;;;;;19.57;8.50;;;6.90;99.90;;;;;;5012601;28;20474;-72
2023/04/25 02:59:38;;;;;;;18.50;6.87;;;6.80;99.90;;;;;;5013083;28;20451;-72
2023/04/25 03:02:06;;;;;;;15.63;6.60;;;6.80;99.90;;;;;;5013357;28;20473;-72
2023/04/25 03:04:34;;;;;;;25.13;8.10;;;6.80;99.90;;;;;;5012123;28;20471;-72
2023/04/25 03:07:03;;;;;;;19.73;7.03;;;6.80;99.90;;;;;;5012219;28;20456;-72
2023/04/25 03:09:31;;;;;;;21.57;7.93;;;6.80;99.90;;;;;;5011927;28;20546;-71
2023/04/25 03:11:59;;;;;;;18.77;7.20;;;6.80;99.90;;;;;;5012149;28;20812;-72
2023/04/25 03:14:27;;;;;;;20.37;7.67;;;6.80;99.90;;;;;;5011887;28;20460;-72
2023/04/25 03:16:56;;;;;;;17.83;6.30;;;6.80;99.90;;;;;;5011989;28;20454;-72
2023/04/25 03:19:25;;;;;;;19.67;6.23;;;6.80;99.90;;;;;;5012070;28;20502;-72
2023/04/25 03:21:53;;;;;;;18.10;6.67;;;6.80;99.90;;;;;;5011954;28;20987;-72
2023/04/25 03:24:22;;;;;;;19.40;6.93;;;6.80;99.90;;;;;;5011807;28;21050;-72
2023/04/25 03:26:50;;;;;;;23.13;6.60;;;6.70;99.90;;;;;;5011832;28;20440;-72
2023/04/25 03:29:18;;;;;;;17.97;7.53;;;6.70;99.90;;;;;;5012006;28;20442;-72
2023/04/25 03:31:47;;;;;;;21.17;6.87;;;6.70;99.90;;;;;;5011850;28;20823;-72
2023/04/25 03:34:17;;;;;;;21.23;6.47;;;6.70;99.90;;;;;;5011972;28;20469;-72
2023/04/25 03:36:45;;;;;;;12.40;6.77;;;6.70;99.90;;;;;;5012206;28;20456;-72
2023/04/25 03:39:14;;;;;;;16.67;6.60;;;6.70;99.90;;;;;;5011869;28;20451;-72
2023/04/25 03:41:47;;;;;;;15.63;6.77;;;6.70;99.90;;;;;;5011833;28;20842;-72
2023/04/25 03:44:17;;;;;;;17.57;7.20;;;6.70;99.90;;;;;;5011805;28;20531;-72
2023/04/25 03:46:46;;;;;;;16.50;6.97;;;6.60;99.90;;;;;;5011782;28;20955;-72
2023/04/25 03:49:14;;;;;;;28.20;7.40;;;6.70;99.90;;;;;;5014684;28;20451;-72
2023/04/25 03:52:04;;;;;;;15.90;5.90;;;6.60;99.90;;;;;;5016099;28;20444;-72
2023/04/25 03:54:39;;;;;;;18.73;6.77;;;6.60;99.90;;;;;;5015196;28;20442;-72
2023/04/25 03:57:13;;;;;;;17.87;6.63;;;6.60;99.90;;;;;;5016077;28;20805;-72
2023/04/25 03:59:43;;;;;;;15.03;6.90;;;6.50;99.90;;;;;;5015188;28;20936;-72
2023/04/25 04:02:14;;;;;;;15.90;5.90;;;6.50;99.90;;;;;;5014876;28;20461;-72
2023/04/25 04:04:43;;;;;;;15.80;5.93;;;6.50;99.90;;;;;;5015143;28;20446;-73
2023/04/25 04:07:13;;;;;;;19.30;6.43;;;6.50;99.90;;;;;;5015518;28;20502;-72
2023/04/25 04:09:44;;;;;;;17.30;6.57;;;6.50;99.90;;;;;;5015602;28;20450;-72
2023/04/25 04:12:27;;;;;;;16.67;6.10;;;6.40;99.90;;;;;;5015705;28;20502;-72
2023/04/25 04:14:56;;;;;;;18.37;6.53;;;6.40;99.90;;;;;;5015196;28;20451;-72
2023/04/25 04:17:24;;;;;;;15.70;6.53;;;6.40;99.90;;;;;;5015034;28;20532;-72
2023/04/25 04:19:53;;;;;;;11.93;5.57;;;6.40;99.90;;;;;;5015055;28;20472;-72
2023/04/25 04:22:23;;;;;;;16.83;6.83;;;6.40;99.90;;;;;;5015843;28;20470;-72
2023/04/25 04:24:54;;;;;;;16.50;6.07;;;6.30;99.90;;;;;;5014656;28;20452;-72
2023/04/25 04:27:36;;;;;;;16.60;5.90;;;6.30;99.90;;;;;;5014933;28;20447;-72
2023/04/25 04:30:18;;;;;;;15.13;5.50;;;6.30;99.90;;;;;;5014626;28;20984;-72
2023/04/25 04:32:56;;;;;;;10.97;5.17;;;6.20;99.90;;;;;;5014514;28;20467;-72
2023/04/25 04:35:25;;;;;;;24.30;6.90;;;6.20;99.90;;;;;;5014507;28;20486;-72
2023/04/25 04:37:55;;;;;;;13.40;5.73;;;6.20;99.90;;;;;;5014431;28;20477;-72
2023/04/25 04:40:26;;;;;;;13.87;5.10;;;6.20;99.90;;;;;;5014738;28;20457;-72
2023/04/25 04:43:03;;;;;;;18.00;6.37;;;6.20;99.90;;;;;;5014220;28;20486;-72
2023/04/25 04:45:55;;;;;;;18.77;5.70;;;6.20;99.90;;;;;;5015101;28;20444;-72
2023/04/25 04:48:33;;;;;;;17.30;5.93;;;6.20;99.90;;;;;;5015393;28;20464;-72
2023/04/25 04:51:20;;;;;;;13.00;5.23;;;6.10;99.90;;;;;;5014354;28;20869;-72
2023/04/25 04:53:58;;;;;;;16.43;5.83;;;6.10;99.90;;;;;;5015139;28;20868;-72
2023/04/25 04:56:47;;;;;;;12.20;4.57;;;6.20;99.90;;;;;;5014098;28;20878;-72
2023/04/25 04:59:38;;;;;;;17.30;5.83;;;6.20;99.90;;;;;;5004266;28;20449;-72
2023/04/25 05:02:25;;;;;;;17.57;4.93;;;6.20;99.90;;;;;;5015508;28;20458;-72
2023/04/25 05:05:07;;;;;;;20.37;5.33;;;6.20;99.90;;;;;;5015114;28;20520;-72
2023/04/25 05:07:35;;;;;;;11.50;5.30;;;6.20;99.90;;;;;;5015047;28;20436;-72
2023/04/25 05:10:12;;;;;;;17.67;5.30;;;6.20;99.90;;;;;;5014023;28;20444;-71
2023/04/25 05:12:58;;;;;;;12.90;6.57;;;6.20;99.90;;;;;;5013737;28;20475;-72
2023/04/25 05:16:05;;;;;;;13.47;5.63;;;6.20;99.90;;;;;;5008489;28;20443;-72
2023/04/25 05:18:56;;;;;;;9.80;4.93;;;6.20;99.90;;;;;;5011839;28;20447;-72
2023/04/25 05:21:42;;;;;;;17.63;6.00;;;6.30;99.90;;;;;;5014244;28;20471;-72
2023/04/25 05:24:31;;;;;;;12.40;4.43;;;6.30;99.90;;;;;;5013489;28;20470;-72
2023/04/25 05:27:39;;;;;;;14.50;4.80;;;6.30;99.90;;;;;;4973748;28;20541;-71
2023/04/25 05:30:38;;;;;;;15.60;6.23;;;6.30;99.90;;;;;;4957506;28;20444;-71
2023/04/25 05:33:11;;;;;;;16.13;5.90;;;6.30;99.90;;;;;;4998150;28;20473;-72
2023/04/25 05:35:39;;;;;;;20.67;4.77;;;6.30;99.90;;;;;;5014659;28;20519;-72
2023/04/25 05:38:08;;;;;;;12.00;5.97;;;6.30;99.90;;;;;;5014264;28;20457;-71
2023/04/25 05:40:55;;;;;;;11.10;3.90;;;6.30;99.90;;;;;;5014852;28;20427;-72
2023/04/25 05:43:48;;;;;;;13.50;4.47;;;6.30;99.90;;;;;;5013076;28;20479;-72
2023/04/25 05:46:49;;;;;;;12.60;5.37;;;6.40;99.90;;;;;;4991990;28;20531;-72
2023/04/25 05:49:43;;;;;;;13.33;4.90;;;6.40;99.90;;;;;;5006252;28;20475;-72
2023/04/25 05:52:32;;;;;;;11.80;4.70;;;6.40;99.90;;;;;;5013397;28;20470;-72
2023/04/25 05:55:23;;;;;;;11.20;4.73;;;6.50;99.90;;;;;;5014492;28;20451;-71
2023/04/25 05:57:51;;;;;;;8.10;3.90;;;6.60;99.90;;;;;;5013028;28;20961;-72
2023/04/25 06:00:22;;;;;;;10.43;4.60;;;6.70;99.90;;;;;;5013481;28;20492;-72
2023/04/25 06:02:50;;;;;;;12.43;4.77;;;6.80;99.90;;;;;;5013243;28;20498;-72
2023/04/25 06:05:21;;;;;;;12.70;4.10;;;6.90;99.90;;;;;;5014210;28;20530;-72
2023/04/25 06:07:49;;;;;;;15.17;4.33;;;7.10;99.90;;;;;;5013183;28;20479;-72
2023/04/25 06:10:18;;;;;;;9.30;3.47;;;7.40;99.90;;;;;;5012843;28;20455;-72
2023/04/25 06:12:46;;;;;;;12.40;4.47;;;7.60;99.90;;;;;;5014241;28;20513;-72
2023/04/25 06:15:19;;;;;;;11.27;4.10;;;7.80;99.90;;;;;;5012874;28;20539;-72
2023/04/25 06:17:51;;;;;;;9.43;4.13;;;8.00;99.90;;;;;;5014372;28;20439;-72
2023/04/25 06:20:22;;;;;;;11.90;4.50;;;8.20;99.90;;;;;;5014130;28;20447;-72
2023/04/25 06:22:52;;;;;;;12.07;4.37;;;8.40;99.90;;;;;;5012544;28;20492;-72
2023/04/25 06:25:22;;;;;;;9.20;3.70;;;8.60;99.90;;;;;;5012557;28;20440;-72
2023/04/25 06:27:51;;;;;;;13.60;4.40;;;8.80;99.90;;;;;;5012487;28;20543;-72
2023/04/25 06:30:22;;;;;;;11.60;3.80;;;9.00;99.90;;;;;;5012892;28;21001;-72
2023/04/25 06:32:54;;;;;;;9.00;3.40;;;9.20;99.90;;;;;;5012510;28;20514;-72
2023/04/25 06:35:22;;;;;;;10.57;4.10;;;9.40;99.90;;;;;;5012296;28;20448;-72
2023/04/25 06:37:51;;;;;;;12.37;3.57;;;9.50;99.90;;;;;;5014626;28;20455;-72
2023/04/25 06:40:22;;;;;;;8.43;3.20;;;9.70;99.90;;;;;;5015117;28;20440;-72
2023/04/25 06:42:50;;;;;;;10.07;3.17;;;9.60;99.90;;;;;;5013663;28;20479;-72
2023/04/25 06:45:35;;;;;;;10.20;3.43;;;9.50;99.90;;;;;;5012914;28;20451;-72
2023/04/25 06:48:05;;;;;;;10.20;4.17;;;9.30;99.90;;;;;;5012795;28;20980;-72
2023/04/25 06:50:34;;;;;;;13.60;3.97;;;9.20;99.90;;;;;;5012587;28;20497;-72
2023/04/25 06:53:02;;;;;;;7.93;3.57;;;9.00;99.90;;;;;;5012516;28;20487;-72
2023/04/25 06:55:31;;;;;;;9.47;3.20;;;8.90;99.90;;;;;;5012411;28;20838;-72
2023/04/25 06:58:32;;;;;;;9.20;3.73;;;8.80;99.90;;;;;;5002002;28;20440;-72
2023/04/25 07:01:10;;;;;;;10.27;3.23;;;8.70;99.90;;;;;;5013339;28;20436;-72
2023/04/25 07:03:40;;;;;;;9.20;3.40;;;8.70;99.90;;;;;;5013114;28;21054;-72
2023/04/25 07:06:14;;;;;;;10.60;3.53;;;8.60;99.90;;;;;;5013243;28;20478;-72
2023/04/25 07:08:42;;;;;;;9.57;3.27;;;8.60;99.90;;;;;;5014273;28;20446;-71
2023/04/25 07:11:10;;;;;;;7.17;3.13;;;8.60;99.90;;;;;;5012923;28;20466;-72
2023/04/25 07:13:40;;;;;;;10.70;3.57;;;8.70;99.90;;;;;;5013150;28;20539;-72
2023/04/25 07:16:08;;;;;;;10.30;3.37;;;9.00;99.90;;;;;;5012462;28;20448;-72
2023/04/25 07:18:37;;;;;;;12.40;3.33;;;9.30;99.90;;;;;;5012868;28;20566;-72
2023/04/25 07:21:07;;;;;;;9.20;3.40;;;9.50;99.90;;;;;;5012819;28;20870;-72
2023/04/25 07:23:37;;;;;;;9.03;3.20;;;9.80;99.90;;;;;;5015055;28;20478;-72
2023/04/25 07:26:10;;;;;;;11.60;3.67;;;10.10;99.90;;;;;;5016540;28;20439;-72
2023/04/25 07:28:51;;;;;;;9.10;3.20;;;10.30;99.90;;;;;;5016280;28;20459;-72
2023/04/25 07:31:19;;;;;;;9.57;3.80;;;10.50;99.90;;;;;;5016316;28;20455;-72
2023/04/25 07:33:47;;;;;;;7.90;3.20;;;10.70;99.90;;;;;;5016231;28;20530;-72
2023/04/25 07:36:17;;;;;;;9.43;2.83;;;10.70;99.90;;;;;;5016463;28;20535;-72
2023/04/25 07:38:46;;;;;;;9.83;3.80;;;10.60;99.90;;;;;;5016136;28;20451;-72
2023/04/25 07:41:14;;;;;;;6.40;2.80;;;10.60;99.90;;;;;;5015823;28;20440;-72
2023/04/25 07:43:42;;;;;;;9.57;2.97;;;10.70;99.90;;;;;;5016430;28;20471;-72
2023/04/25 07:46:10;;;;;;;11.00;3.00;;;10.70;99.90;;;;;;5015946;28;20889;-72
2023/04/25 07:48:38;;;;;;;9.80;2.77;;;10.80;99.90;;;;;;5018792;28;20874;-72
2023/04/25 07:51:07;;;;;;;7.27;2.73;;;10.80;99.90;;;;;;5019384;28;20436;-72
2023/04/25 07:53:38;;;;;;;10.90;3.20;;;10.90;99.90;;;;;;5016992;28;21013;-73
2023/04/25 07:56:11;;;;;;;9.03;2.93;;;10.80;99.90;;;;;;5018446;28;20457;-72
2023/04/25 07:58:43;;;;;;;12.67;3.03;;;10.90;99.90;;;;;;5017139;28;20440;-72
2023/04/25 08:01:14;;;;;;;10.50;3.10;;;10.60;99.90;;;;;;5016870;28;20494;-72
2023/04/25 08:03:53;;;;;;;9.93;3.20;;;10.70;99.90;;;;;;5016865;28;20479;-72
2023/04/25 08:06:27;;;;;;;11.47;2.77;;;10.70;99.90;;;;;;5016405;28;20880;-72
2023/04/25 08:09:17;;;;;;;11.23;3.13;;;10.60;99.90;;;;;;5017508;28;20534;-72
2023/04/25 08:11:45;;;;;;;11.70;3.03;;;10.50;99.90;;;;;;5016293;28;20543;-72
2023/04/25 08:14:15;;;;;;;6.53;2.93;;;10.40;99.90;;;;;;5015824;28;20479;-72
2023/04/25 08:16:45;;;;;;;10.43;3.47;;;10.20;99.90;;;;;;5016322;28;20486;-71
2023/04/25 08:19:13;;;;;;;18.43;3.40;;;10.10;99.90;;;;;;5016090;28;20833;-72
2023/04/25 08:21:41;;;;;;;6.90;2.73;;;9.90;99.90;;;;;;5015943;28;20521;-71
2023/04/25 08:24:14;;;;;;;8.97;2.80;;;9.70;99.90;;;;;;5015636;28;21044;-71
2023/04/25 08:26:45;;;;;;;7.10;2.53;;;9.50;99.90;;;;;;5016558;28;20938;-71
2023/04/25 08:29:16;;;;;;;6.70;1.80;;;9.30;99.90;;;;;;5015483;28;20444;-71
2023/04/25 08:31:45;;;;;;;5.43;2.20;;;9.00;99.90;;;;;;5015350;28;20444;-71
2023/04/25 08:34:15;;;;;;;6.50;2.60;;;8.80;99.90;;;;;;5016122;28;20474;-71
2023/04/25 08:36:49;;;;;;;6.60;2.40;;;8.70;99.90;;;;;;5016415;28;20514;-71
2023/04/25 08:39:35;;;;;;;5.60;1.87;;;8.60;99.90;;;;;;5017273;28;20630;-72
2023/04/25 08:42:31;;;;;;;7.27;2.57;;;8.60;99.90;;;;;;5017052;28;20535;-71
2023/04/25 08:45:02;;;;;;;5.80;2.50;;;8.60;99.90;;;;;;5015732;28;20471;-72
2023/04/25 08:47:39;;;;;;;5.97;2.20;;;8.70;99.90;;;;;;5015893;28;20462;-71
2023/04/25 08:50:08;;;;;;;7.43;2.17;;;8.80;99.90;;;;;;5016277;28;20800;-71
2023/04/25 08:52:40;;;;;;;6.40;2.00;;;8.80;99.90;;;;;;5016113;28;20460;-71
2023/04/25 08:55:10;;;;;;;6.77;2.43;;;8.90;99.90;;;;;;5015519;28;20456;-71
2023/04/25 08:57:42;;;;;;;7.10;2.20;;;9.10;99.90;;;;;;5015348;28;20791;-71
2023/04/25 09:00:13;;;;;;;5.33;1.60;;;9.40;99.90;;;;;;5016951;28;20544;-71
2023/04/25 09:02:44;;;;;;;6.60;2.30;;;9.50;99.90;;;;;;5015830;28;20555;-71
2023/04/25 09:05:14;;;;;;;11.13;3.03;;;9.60;99.90;;;;;;5016486;28;20464;-71
2023/04/25 09:07:44;;;;;;;6.20;2.10;;;9.70;99.90;;;;;;5014993;28;20446;-71
2023/04/25 09:10:12;;;;;;;6.97;2.00;;;9.80;99.90;;;;;;5015306;28;20440;-71
2023/04/25 09:12:42;;;;;;;8.23;2.57;;;9.90;99.90;;;;;;5016294;28;20464;-71
2023/04/25 09:15:12;;;;;;;8.30;2.60;;;9.90;99.90;;;;;;5016227;28;20454;-72
2023/04/25 09:18:26;;;;;;;7.77;2.33;;;9.90;99.90;;;;;;4995270;28;20848;-71
2023/04/25 09:21:06;;;;;;;6.30;2.47;;;10.00;99.90;;;;;;4994651;28;20437;-71
2023/04/25 09:23:51;;;;;;;5.53;2.20;;;9.90;99.90;;;;;;5007505;28;20551;-71
2023/04/25 09:26:21;;;;;;;5.80;1.93;;;9.90;99.90;;;;;;5015097;28;20995;-71
2023/04/25 09:29:07;;;;;;;5.67;1.80;;;9.80;99.90;;;;;;5015897;28;20943;-71
2023/04/25 09:31:37;;;;;;;8.20;2.80;;;9.90;99.90;;;;;;5015284;28;20877;-71
2023/04/25 09:34:11;;;;;;;6.63;2.00;;;9.80;99.90;;;;;;5015059;28;20495;-71
2023/04/25 09:36:45;;;;;;;5.70;2.00;;;9.80;99.90;;;;;;5015899;28;20530;-71
2023/04/25 09:39:34;;;;;;;6.90;2.43;;;9.90;99.90;;;;;;5016317;28;20420;-71
2023/04/25 09:42:11;;;;;;;4.53;1.87;;;10.00;99.90;;;;;;5014480;28;20475;-71
2023/04/25 09:44:45;;;;;;;5.27;2.00;;;10.00;99.90;;;;;;5014803;28;20555;-71
2023/04/25 09:47:16;;;;;;;6.27;1.93;;;10.20;99.90;;;;;;5014449;28;20459;-71
2023/04/25 09:49:45;;;;;;;5.23;1.70;;;10.30;99.90;;;;;;5013955;28;20448;-71
2023/04/25 09:52:17;;;;;;;4.33;1.70;;;10.40;99.90;;;;;;5013670;28;20535;-71
2023/04/25 09:54:58;;;;;;;5.90;2.17;;;10.50;99.90;;;;;;5012921;28;20455;-72
2023/04/25 09:57:32;;;;;;;6.87;1.80;;;10.50;99.90;;;;;;5012662;28;20463;-72
2023/04/25 10:00:08;;;;;;;7.07;2.20;;;10.50;99.90;;;;;;5012520;28;20448;-72
2023/04/25 10:02:43;;;;;;;4.53;2.00;;;10.60;99.90;;;;;;5014121;28;20839;-71
2023/04/25 10:05:24;;;;;;;5.37;1.97;;;10.70;99.90;;;;;;5013354;28;20819;-72
2023/04/25 10:07:56;;;;;;;8.63;2.43;;;10.70;99.90;;;;;;5012902;28;20448;-71
2023/04/25 10:10:27;;;;;;;8.73;2.13;;;10.60;99.90;;;;;;5013526;28;20451;-71
2023/04/25 10:12:59;;;;;;;6.53;2.20;;;10.50;99.90;;;;;;5014912;28;20460;-71
2023/04/25 10:15:29;;;;;;;7.97;2.50;;;10.40;99.90;;;;;;5014232;28;20438;-71
2023/04/25 10:17:58;;;;;;;6.27;2.33;;;10.30;99.90;;;;;;5013314;28;20502;-71
2023/04/25 10:20:26;;;;;;;5.80;2.00;;;10.00;99.90;;;;;;5011884;28;20543;-72
2023/04/25 10:22:58;;;;;;;8.00;2.37;;;9.90;99.90;;;;;;5013154;28;20598;-72
2023/04/25 10:25:26;;;;;;;6.97;2.60;;;9.80;99.90;;;;;;5013489;28;20467;-72
2023/04/25 10:27:55;;;;;;;6.87;2.20;;;9.70;99.90;;;;;;5013471;28;20781;-72
2023/04/25 10:30:23;;;;;;;7.80;2.43;;;9.60;99.90;;;;;;5013645;28;20451;-72
2023/04/25 10:32:56;;;;;;;4.10;1.60;;;9.60;99.90;;;;;;5013271;28;20464;-72
2023/04/25 10:35:26;;;;;;;5.70;2.03;;;9.60;99.90;;;;;;5012160;28;20443;-72
2023/04/25 10:37:59;;;;;;;5.43;2.00;;;9.60;99.90;;;;;;5012180;28;20511;-71
2023/04/25 10:40:27;;;;;;;5.33;1.73;;;9.70;99.90;;;;;;5012021;28;20483;-72
2023/04/25 10:42:56;;;;;;;4.80;1.60;;;9.70;99.90;;;;;;5013507;28;20885;-71
2023/04/25 10:45:24;;;;;;;6.73;1.77;;;9.80;99.90;;;;;;5013215;28;21057;-72
2023/04/25 10:47:53;;;;;;;5.67;1.80;;;9.90;99.90;;;;;;4973379;28;1131354;-72
2023/04/25 10:50:22;;;;;;;7.70;1.97;;;10.00;99.90;;;;;;5014275;28;20193;-71
2023/04/25 10:52:50;;;;;;;6.47;1.60;;;10.10;99.90;;;;;;5014074;28;20455;-71
2023/04/25 10:55:18;;;;;;;8.47;1.97;;;10.20;99.90;;;;;;5013701;28;20436;-71
2023/04/25 10:57:48;;;;;;;7.60;2.17;;;10.20;99.90;;;;;;5014816;28;20463;-71
2023/04/25 11:00:18;;;;;;;5.80;1.90;;;10.30;99.90;;;;;;5016872;28;20469;-71
2023/04/25 11:02:48;;;;;;;7.83;2.10;;;10.40;99.90;;;;;;5017416;28;20475;-71
2023/04/25 11:05:30;;;;;;;6.07;2.23;;;10.40;99.90;;;;;;5018052;28;20463;-71
2023/04/25 11:08:00;;;;;;;6.47;2.50;;;10.50;99.90;;;;;;5016670;28;20436;-71
2023/04/25 11:10:36;;;;;;;5.80;2.03;;;10.60;99.90;;;;;;5017164;28;20815;-71
2023/04/25 11:13:05;;;;;;;4.90;1.83;;;10.60;99.90;;;;;;5018667;28;21009;-71
2023/04/25 11:15:33;;;;;;;6.90;2.00;;;10.70;99.90;;;;;;5018172;28;20546;-71
2023/04/25 11:18:01;;;;;;;9.53;2.90;;;10.70;99.90;;;;;;5019070;28;20450;-71
2023/04/25 11:20:31;;;;;;;7.50;2.07;;;10.80;99.90;;;;;;5018512;28;20439;-71
2023/04/25 11:23:00;;;;;;;6.70;2.13;;;10.90;99.90;;;;;;5018787;28;21085;-71
2023/04/25 11:25:30;;;;;;;6.13;2.27;;;10.80;99.90;;;;;;5018778;28;20856;-71
2023/04/25 11:28:00;;;;;;;7.10;2.87;;;10.80;99.90;;;;;;5019090;28;20788;-71
2023/04/25 11:30:30;;;;;;;6.83;2.67;;;10.50;99.90;;;;;;5019018;28;20435;-71
2023/04/25 11:32:58;;;;;;;7.33;2.47;;;10.20;99.90;;;;;;5018717;28;20980;-71
2023/04/25 11:35:26;;;;;;;8.50;2.60;;;10.00;99.90;;;;;;5018733;28;20435;-71
2023/04/25 11:37:56;;;;;;;7.80;2.63;;;9.80;99.90;;;;;;5018827;28;20432;-71
2023/04/25 11:40:24;;;;;;;6.23;2.27;;;9.80;99.90;;;;;;5018651;28;20436;-71
2023/04/25 11:42:52;;;;;;;7.13;2.13;;;9.70;99.90;;;;;;5018238;28;20461;-71
2023/04/25 11:45:24;;;;;;;7.70;2.50;;;9.80;99.90;;;;;;5017271;28;20558;-71
2023/04/25 11:47:52;;;;;;;6.47;2.70;;;9.80;99.90;;;;;;5017447;28;20527;-71
2023/04/25 11:50:21;;;;;;;8.90;2.50;;;9.80;99.90;;;;;;5017304;28;20973;-71
2023/04/25 11:52:50;;;;;;;4.97;2.67;;;9.80;99.90;;;;;;5017524;28;20466;-71
2023/04/25 11:55:21;;;;;;;7.30;2.30;;;9.80;99.90;;;;;;5017588;28;20440;-71
2023/04/25 11:57:51;;;;;;;5.37;2.20;;;9.90;99.90;;;;;;5016625;28;20443;-71
2023/04/25 12:00:20;;;;;;;8.60;2.60;;;10.00;99.90;;;;;;5017689;28;20455;-71
2023/04/25 12:02:52;;;;;;;9.23;2.30;;;10.20;99.90;;;;;;5017560;28;20974;-72
2023/04/25 12:05:24;;;;;;;6.20;1.80;;;10.20;99.90;;;;;;5018061;28;20861;-71
2023/04/25 12:07:55;;;;;;;4.60;1.67;;;10.30;99.90;;;;;;5016540;28;20522;-71
2023/04/25 12:10:26;;;;;;;6.60;1.80;;;10.20;99.90;;;;;;5017862;28;20504;-71
2023/04/25 12:12:54;;;;;;;6.90;2.10;;;10.10;99.90;;;;;;5016813;28;20474;-71
2023/04/25 12:15:25;;;;;;;5.47;1.93;;;10.00;99.90;;;;;;5018009;28;20432;-71
2023/04/25 12:17:55;;;;;;;6.07;1.70;;;10.00;99.90;;;;;;5017478;28;20479;-71
2023/04/25 12:20:26;;;;;;;9.07;2.37;;;9.90;99.90;;;;;;5017951;28;20462;-71
2023/04/25 12:22:55;;;;;;;5.73;1.67;;;9.80;99.90;;;;;;5017528;28;20452;-71
2023/04/25 12:25:38;;;;;;;4.40;1.97;;;9.80;99.90;;;;;;5017384;28;20816;-71
2023/04/25 12:28:19;;;;;;;6.30;2.10;;;9.80;99.90;;;;;;5017585;28;20420;-71
2023/04/25 12:30:58;;;;;;;6.40;1.90;;;9.90;99.90;;;;;;5016708;28;20440;-71
2023/04/25 12:33:28;;;;;;;6.33;2.37;;;10.00;99.90;;;;;;5017571;28;20459;-71
2023/04/25 12:35:57;;;;;;;6.40;2.20;;;10.10;99.90;;;;;;5018983;28;20794;-71
2023/04/25 12:38:26;;;;;;;10.70;2.90;;;10.20;99.90;;;;;;5019647;28;20436;-71
2023/04/25 12:40:56;;;;;;;7.00;2.10;;;10.30;99.90;;;;;;5019068;28;20462;-71
2023/04/25 12:43:25;;;;;;;6.60;2.47;;;10.40;99.90;;;;;;5019566;28;20463;-71
2023/04/25 12:45:55;;;;;;;8.70;2.43;;;10.50;99.90;;;;;;5018943;28;20467;-71
2023/04/25 12:48:24;;;;;;;8.10;2.10;;;10.50;99.90;;;;;;5018124;28;20447;-71
2023/04/25 12:50:53;;;;;;;7.23;1.83;;;10.60;99.90;;;;;;5018036;28;20792;-71
2023/04/25 12:53:22;;;;;;;7.07;2.30;;;10.60;99.90;;;;;;5018331;28;20471;-71
2023/04/25 12:55:51;;;;;;;5.80;2.03;;;10.60;99.90;;;;;;5016523;28;20451;-71
2023/04/25 12:58:21;;;;;;;7.87;2.20;;;10.60;99.90;;;;;;5017472;28;20541;-71
2023/04/25 13:00:49;;;;;;;7.30;2.10;;;10.60;99.90;;;;;;5016733;28;20458;-71
2023/04/25 13:03:17;;;;;;;5.97;1.90;;;10.60;99.90;;;;;;5017238;28;20475;-71
2023/04/25 13:05:46;;;;;;;8.77;2.13;;;10.50;99.90;;;;;;5018780;28;20521;-70
2023/04/25 13:08:14;;;;;;;7.77;2.00;;;10.40;99.90;;;;;;5018239;28;20510;-70
2023/04/25 13:10:42;;;;;;;6.73;1.70;;;10.30;99.90;;;;;;5018326;28;20939;-70
2023/04/25 13:13:10;;;;;;;11.27;2.30;;;10.30;99.90;;;;;;5017274;28;20456;-71
2023/04/25 13:15:40;;;;;;;6.17;2.30;;;10.30;99.90;;;;;;5017255;28;20455;-71